Terminal Aerodrome Forecast
Issued by NWS Sterling, VA

Current Version | Previous Version | Graphics & Text | Print | Product List | Glossary On
Versions: 1 2 3 4 5 6 7 8 9 10 11 12 13 14
000
FTUS41 KLWX 101735
TAFMRB
TAF
KMRB 101735Z 1018/1118 27012G23KT P6SM BKN040
     FM102000 27012G18KT P6SM SCT050 SCT110
     FM102300 25007KT P6SM SCT100
     FM110100 25006KT P6SM BKN090
     FM111000 24005KT P6SM SCT050
     FM111600 27006KT P6SM SCT150=

USA.gov is the U.S. government's official web portal to all federal, state and local government web resources and services.